createdAt,value
2017-10-01T00:00:02.160Z,1014.21
2017-10-01T00:00:42.662Z,1014.24
2017-10-01T00:01:23.196Z,1014.22
2017-10-01T00:02:03.734Z,1014.23
2017-10-01T00:02:44.260Z,1014.3
2017-10-01T00:03:24.776Z,1014.3
2017-10-01T00:04:05.329Z,1014.28
2017-10-01T00:04:45.838Z,1014.28
2017-10-01T00:05:26.374Z,1014.31
2017-10-01T00:06:06.913Z,1014.3
2017-10-01T00:06:47.445Z,1014.3
2017-10-01T00:07:28.003Z,1014.33
2017-10-01T00:08:08.529Z,1014.3
2017-10-01T00:08:49.068Z,1014.31
2017-10-01T00:09:29.593Z,1014.29
2017-10-01T00:10:10.124Z,1014.28
2017-10-01T00:10:50.668Z,1014.31
2017-10-01T00:11:31.196Z,1014.3
2017-10-01T00:12:11.718Z,1014.3
2017-10-01T00:12:52.291Z,1014.34
2017-10-01T00:13:32.801Z,1014.34
2017-10-01T00:14:13.338Z,1014.32
2017-10-01T00:14:53.882Z,1014.36
2017-10-01T00:15:34.407Z,1014.32
2017-10-01T00:16:14.924Z,1014.33
2017-10-01T00:16:55.470Z,1014.32
2017-10-01T00:17:35.990Z,1014.32
2017-10-01T00:18:16.559Z,1014.31
2017-10-01T00:18:57.077Z,1014.34
2017-10-01T00:19:37.586Z,1014.35
2017-10-01T00:20:18.106Z,1014.32
2017-10-01T00:20:58.636Z,1014.33
2017-10-01T00:21:39.175Z,1014.35
2017-10-01T00:22:19.669Z,1014.34
2017-10-01T00:23:00.206Z,1014.35
2017-10-01T00:23:40.751Z,1014.33
2017-10-01T00:24:21.277Z,1014.36
2017-10-01T00:25:01.801Z,1014.36
2017-10-01T00:25:42.332Z,1014.41
2017-10-01T00:26:22.865Z,1014.34
2017-10-01T00:27:03.391Z,1014.41
2017-10-01T00:27:43.909Z,1014.41
2017-10-01T00:28:24.448Z,1014.41
2017-10-01T00:29:04.976Z,1014.46
2017-10-01T00:29:45.500Z,1014.4
2017-10-01T00:30:26.031Z,1014.41
2017-10-01T00:31:06.565Z,1014.38
2017-10-01T00:31:47.094Z,1014.44
2017-10-01T00:32:27.593Z,1014.41
2017-10-01T00:33:08.123Z,1014.4
2017-10-01T00:33:48.642Z,1014.4
2017-10-01T00:34:29.159Z,1014.41
2017-10-01T00:35:09.687Z,1014.4
2017-10-01T00:35:50.230Z,1014.42
2017-10-01T00:36:30.760Z,1014.37
2017-10-01T00:37:11.287Z,1014.37
2017-10-01T00:37:51.813Z,1014.38
2017-10-01T00:38:32.358Z,1014.37
2017-10-01T00:39:12.896Z,1014.35
2017-10-01T00:39:53.403Z,1014.37
2017-10-01T00:40:33.930Z,1014.34
2017-10-01T00:41:14.461Z,1014.32
2017-10-01T00:41:54.986Z,1014.34
2017-10-01T00:42:35.521Z,1014.34
2017-10-01T00:43:16.044Z,1014.3
2017-10-01T00:43:56.582Z,1014.33
2017-10-01T00:44:37.109Z,1014.31
2017-10-01T00:45:17.645Z,1014.29
2017-10-01T00:45:58.184Z,1014.33
2017-10-01T00:46:38.700Z,1014.34
2017-10-01T00:47:19.230Z,1014.38
2017-10-01T00:47:59.764Z,1014.39
2017-10-01T00:48:40.299Z,1014.38
2017-10-01T00:49:20.838Z,1014.4
2017-10-01T00:50:01.344Z,1014.37
2017-10-01T00:50:41.872Z,1014.37
2017-10-01T00:51:22.397Z,1014.36
2017-10-01T00:52:02.965Z,1014.36
2017-10-01T00:52:43.494Z,1014.35
2017-10-01T00:53:24.028Z,1014.3
2017-10-01T00:54:04.559Z,1014.36
2017-10-01T00:54:45.086Z,1014.34
2017-10-01T00:55:25.644Z,1014.34
2017-10-01T00:56:06.161Z,1014.32
2017-10-01T00:56:46.702Z,1014.34
2017-10-01T00:57:27.218Z,1014.34
2017-10-01T00:58:07.749Z,1014.37
2017-10-01T00:58:48.279Z,1014.36
2017-10-01T00:59:28.808Z,1014.38
2017-10-01T01:00:09.334Z,1014.39
2017-10-01T01:00:49.866Z,1014.4
2017-10-01T01:01:30.381Z,1014.38
2017-10-01T01:02:10.904Z,1014.35
2017-10-01T01:02:51.441Z,1014.34
2017-10-01T01:03:31.960Z,1014.35
2017-10-01T01:04:12.475Z,1014.4
2017-10-01T01:04:52.995Z,1014.36
2017-10-01T01:05:33.533Z,1014.4
2017-10-01T01:06:14.057Z,1014.41
2017-10-01T01:06:54.584Z,1014.41
2017-10-01T01:07:35.115Z,1014.45
2017-10-01T01:08:15.667Z,1014.4
2017-10-01T01:08:56.183Z,1014.46
2017-10-01T01:09:36.701Z,1014.44
2017-10-01T01:10:17.233Z,1014.41
2017-10-01T01:10:57.751Z,1014.43
2017-10-01T01:11:38.275Z,1014.43
2017-10-01T01:12:18.812Z,1014.43
2017-10-01T01:12:59.404Z,1014.41
2017-10-01T01:13:39.920Z,1014.42
2017-10-01T01:14:20.467Z,1014.42
2017-10-01T01:15:00.976Z,1014.38
2017-10-01T01:15:41.507Z,1014.39
2017-10-01T01:16:22.041Z,1014.39
2017-10-01T01:17:02.571Z,1014.41
2017-10-01T01:17:43.107Z,1014.41
2017-10-01T01:18:23.628Z,1014.43
2017-10-01T01:19:04.159Z,1014.42
2017-10-01T01:19:44.692Z,1014.42
2017-10-01T01:20:25.267Z,1014.43
2017-10-01T01:21:05.795Z,1014.48
2017-10-01T01:21:46.340Z,1014.46
2017-10-01T01:22:26.837Z,1014.49
2017-10-01T01:23:07.378Z,1014.48
2017-10-01T01:23:47.893Z,1014.51
2017-10-01T01:24:28.422Z,1014.47
2017-10-01T01:25:08.962Z,1014.51
2017-10-01T01:25:49.486Z,1014.51
2017-10-01T01:26:30.007Z,1014.51
2017-10-01T01:27:10.532Z,1014.53
2017-10-01T01:27:51.050Z,1014.5
2017-10-01T01:28:31.578Z,1014.49
2017-10-01T01:29:12.099Z,1014.54
2017-10-01T01:29:52.627Z,1014.51
2017-10-01T01:30:33.135Z,1014.51
2017-10-01T01:31:13.689Z,1014.51
2017-10-01T01:31:54.204Z,1014.48
2017-10-01T01:32:34.736Z,1014.5
2017-10-01T01:33:15.258Z,1014.52
2017-10-01T01:33:55.800Z,1014.54
2017-10-01T01:34:36.274Z,1014.55
2017-10-01T01:35:16.801Z,1014.56
2017-10-01T01:35:57.333Z,1014.6
2017-10-01T01:36:37.866Z,1014.61
2017-10-01T01:37:18.401Z,1014.59
2017-10-01T01:37:58.917Z,1014.6
2017-10-01T01:38:39.440Z,1014.62
2017-10-01T01:39:19.970Z,1014.63
2017-10-01T01:40:00.489Z,1014.64
2017-10-01T01:40:41.036Z,1014.65
2017-10-01T01:41:21.557Z,1014.65
2017-10-01T01:42:02.093Z,1014.7
2017-10-01T01:42:42.626Z,1014.69
2017-10-01T01:43:23.149Z,1014.67
2017-10-01T01:44:03.679Z,1014.68
2017-10-01T01:44:44.218Z,1014.71
2017-10-01T01:45:24.744Z,1014.71
2017-10-01T01:46:05.289Z,1014.71
2017-10-01T01:46:45.814Z,1014.72
2017-10-01T01:47:26.348Z,1014.71
2017-10-01T01:48:06.886Z,1014.71
2017-10-01T01:48:47.406Z,1014.73
2017-10-01T01:49:27.947Z,1014.73
2017-10-01T01:50:08.487Z,1014.71
2017-10-01T01:50:49.050Z,1014.73
2017-10-01T01:51:29.604Z,1014.76
2017-10-01T01:52:10.128Z,1014.75
2017-10-01T01:52:50.665Z,1014.73
2017-10-01T01:53:31.191Z,1014.76
2017-10-01T01:54:11.726Z,1014.71
2017-10-01T01:54:52.256Z,1014.71
2017-10-01T01:55:32.788Z,1014.75
2017-10-01T01:56:13.305Z,1014.72
2017-10-01T01:56:53.851Z,1014.71
2017-10-01T01:57:34.394Z,1014.73
2017-10-01T01:58:14.903Z,1014.73
2017-10-01T01:58:55.445Z,1014.71
2017-10-01T01:59:35.975Z,1014.67
2017-10-01T02:00:16.531Z,1014.75
2017-10-01T02:00:57.030Z,1014.68
2017-10-01T02:01:37.559Z,1014.67
2017-10-01T02:02:18.083Z,1014.7
2017-10-01T02:02:58.611Z,1014.68
2017-10-01T02:03:39.141Z,1014.68
2017-10-01T02:04:19.665Z,1014.66
2017-10-01T02:05:00.197Z,1014.68
2017-10-01T02:05:40.729Z,1014.66
2017-10-01T02:06:21.248Z,1014.68
2017-10-01T02:07:01.784Z,1014.72
2017-10-01T02:07:42.315Z,1014.72
2017-10-01T02:08:22.853Z,1014.72
2017-10-01T02:09:03.382Z,1014.71
2017-10-01T02:09:43.906Z,1014.72
2017-10-01T02:10:24.457Z,1014.71
2017-10-01T02:11:04.969Z,1014.72
2017-10-01T02:11:45.486Z,1014.73
2017-10-01T02:12:26.026Z,1014.72
2017-10-01T02:13:06.569Z,1014.73
2017-10-01T02:13:47.100Z,1014.72
2017-10-01T02:14:27.627Z,1014.72
2017-10-01T02:15:08.212Z,1014.73
2017-10-01T02:15:48.722Z,1014.76
2017-10-01T02:16:29.256Z,1014.77
2017-10-01T02:17:09.780Z,1014.73
2017-10-01T02:17:50.330Z,1014.74
2017-10-01T02:18:30.870Z,1014.78
2017-10-01T02:19:11.395Z,1014.76
2017-10-01T02:19:51.923Z,1014.78
2017-10-01T02:20:32.456Z,1014.77
2017-10-01T02:21:12.991Z,1014.78
2017-10-01T02:21:53.511Z,1014.8
2017-10-01T02:22:34.030Z,1014.75
2017-10-01T02:23:14.547Z,1014.76
2017-10-01T02:23:55.063Z,1014.78
2017-10-01T02:24:35.601Z,1014.77
2017-10-01T02:25:16.124Z,1014.75
2017-10-01T02:25:56.651Z,1014.79
2017-10-01T02:26:37.174Z,1014.77
2017-10-01T02:27:17.699Z,1014.79
2017-10-01T02:27:58.210Z,1014.81
2017-10-01T02:28:38.706Z,1014.79
2017-10-01T02:29:19.232Z,1014.81
2017-10-01T02:29:59.758Z,1014.78
2017-10-01T02:30:40.266Z,1014.8
2017-10-01T02:31:20.807Z,1014.76
2017-10-01T02:32:01.326Z,1014.81
2017-10-01T02:32:41.849Z,1014.8
2017-10-01T02:33:22.403Z,1014.82
2017-10-01T02:34:02.923Z,1014.79
2017-10-01T02:34:43.462Z,1014.82
2017-10-01T02:35:23.988Z,1014.81
2017-10-01T02:36:04.515Z,1014.8
2017-10-01T02:36:45.046Z,1014.8
2017-10-01T02:37:25.569Z,1014.77
2017-10-01T02:38:06.092Z,1014.77
2017-10-01T02:38:46.619Z,1014.8
2017-10-01T02:39:27.153Z,1014.77
2017-10-01T02:40:07.692Z,1014.73
2017-10-01T02:40:48.212Z,1014.74
2017-10-01T02:41:28.753Z,1014.74
2017-10-01T02:42:09.286Z,1014.73
2017-10-01T02:42:49.809Z,1014.74
2017-10-01T02:43:30.334Z,1014.76
2017-10-01T02:44:10.887Z,1014.73
2017-10-01T02:44:51.421Z,1014.77
2017-10-01T02:45:31.934Z,1014.73
2017-10-01T02:46:12.473Z,1014.72
2017-10-01T02:46:53.011Z,1014.72
2017-10-01T02:47:33.529Z,1014.73
2017-10-01T02:48:14.085Z,1014.7
2017-10-01T02:48:54.586Z,1014.69
2017-10-01T02:49:35.136Z,1014.68
2017-10-01T02:50:15.624Z,1014.7
2017-10-01T02:50:56.140Z,1014.7
2017-10-01T02:51:36.660Z,1014.7
2017-10-01T02:52:17.198Z,1014.73
2017-10-01T02:52:57.706Z,1014.75
2017-10-01T02:53:38.233Z,1014.75
2017-10-01T02:54:18.761Z,1014.78
2017-10-01T02:54:59.301Z,1014.77
2017-10-01T02:55:39.837Z,1014.77
2017-10-01T02:56:20.362Z,1014.78
2017-10-01T02:57:00.916Z,1014.8
2017-10-01T02:57:41.472Z,1014.81
2017-10-01T02:58:21.974Z,1014.84
2017-10-01T02:59:02.502Z,1014.84
2017-10-01T02:59:43.026Z,1014.83
2017-10-01T03:00:23.538Z,1014.85
2017-10-01T03:01:04.079Z,1014.89
2017-10-01T03:01:44.592Z,1014.86
2017-10-01T03:02:25.134Z,1014.86
2017-10-01T03:03:05.674Z,1014.85
2017-10-01T03:03:46.177Z,1014.82
2017-10-01T03:04:26.686Z,1014.82
2017-10-01T03:05:07.211Z,1014.85
2017-10-01T03:05:47.741Z,1014.85
2017-10-01T03:06:28.280Z,1014.88
2017-10-01T03:07:08.799Z,1014.88
2017-10-01T03:07:49.327Z,1014.86
2017-10-01T03:08:29.850Z,1014.89
2017-10-01T03:09:10.375Z,1014.87
2017-10-01T03:09:50.902Z,1014.88
2017-10-01T03:10:31.440Z,1014.84
2017-10-01T03:11:11.979Z,1014.85
2017-10-01T03:11:52.520Z,1014.81
2017-10-01T03:12:33.137Z,1014.79
2017-10-01T03:13:13.667Z,1014.81
2017-10-01T03:13:54.179Z,1014.81
2017-10-01T03:14:34.709Z,1014.81
2017-10-01T03:15:15.246Z,1014.84
2017-10-01T03:15:55.775Z,1014.87
2017-10-01T03:16:36.298Z,1014.79
2017-10-01T03:17:16.822Z,1014.82
2017-10-01T03:17:57.333Z,1014.83
2017-10-01T03:18:37.864Z,1014.83
2017-10-01T03:19:18.390Z,1014.86
2017-10-01T03:19:58.903Z,1014.85
2017-10-01T03:20:39.452Z,1014.81
2017-10-01T03:21:19.955Z,1014.82
2017-10-01T03:22:00.498Z,1014.8
2017-10-01T03:22:41.009Z,1014.8
2017-10-01T03:23:21.551Z,1014.84
2017-10-01T03:24:02.101Z,1014.84
2017-10-01T03:24:42.612Z,1014.86
2017-10-01T03:25:23.144Z,1014.86
2017-10-01T03:26:03.666Z,1014.88
2017-10-01T03:26:44.200Z,1014.9
2017-10-01T03:27:24.755Z,1014.9
2017-10-01T03:28:05.308Z,1014.85
2017-10-01T03:28:45.803Z,1014.86
2017-10-01T03:29:26.320Z,1014.89
2017-10-01T03:30:06.868Z,1014.89
2017-10-01T03:30:47.422Z,1014.88
2017-10-01T03:31:27.925Z,1014.87
2017-10-01T03:32:08.440Z,1014.88
2017-10-01T03:32:48.961Z,1014.86
2017-10-01T03:33:29.498Z,1014.86
2017-10-01T03:34:10.048Z,1014.87
2017-10-01T03:34:50.536Z,1014.87
2017-10-01T03:35:31.070Z,1014.86
2017-10-01T03:36:11.602Z,1014.89
2017-10-01T03:36:52.151Z,1014.89
2017-10-01T03:37:32.653Z,1014.91
2017-10-01T03:38:13.168Z,1014.92
2017-10-01T03:38:53.697Z,1014.89
2017-10-01T03:39:34.193Z,1014.9
2017-10-01T03:40:14.748Z,1014.87
2017-10-01T03:40:55.249Z,1014.87
2017-10-01T03:41:35.767Z,1014.89
2017-10-01T03:42:16.322Z,1014.84
2017-10-01T03:42:56.843Z,1014.83
2017-10-01T03:43:37.408Z,1014.86
2017-10-01T03:44:17.946Z,1014.88
2017-10-01T03:44:58.483Z,1014.84
2017-10-01T03:45:39.000Z,1014.91
2017-10-01T03:46:19.525Z,1014.88
2017-10-01T03:47:00.062Z,1014.89
2017-10-01T03:47:40.596Z,1014.91
2017-10-01T03:48:21.136Z,1014.92
2017-10-01T03:49:01.670Z,1014.9
2017-10-01T03:49:42.200Z,1014.89
2017-10-01T03:50:22.720Z,1014.86
2017-10-01T03:51:03.230Z,1014.88
2017-10-01T03:51:43.766Z,1014.88
2017-10-01T03:52:24.296Z,1014.87
2017-10-01T03:53:04.834Z,1014.86
2017-10-01T03:53:45.349Z,1014.87
2017-10-01T03:54:25.869Z,1014.9
2017-10-01T03:55:06.397Z,1014.9
2017-10-01T03:55:46.892Z,1014.93
2017-10-01T03:56:27.426Z,1014.89
2017-10-01T03:57:07.970Z,1014.89
2017-10-01T03:57:48.509Z,1014.92
2017-10-01T03:58:29.050Z,1014.89
2017-10-01T03:59:09.592Z,1014.94
2017-10-01T03:59:50.100Z,1014.91
2017-10-01T04:00:30.633Z,1014.94
2017-10-01T04:01:11.166Z,1014.93
2017-10-01T04:01:51.701Z,1014.96
2017-10-01T04:02:32.236Z,1014.92
2017-10-01T04:03:12.762Z,1014.93
2017-10-01T04:03:53.297Z,1014.94
2017-10-01T04:04:33.835Z,1014.92
2017-10-01T04:05:14.369Z,1014.96
2017-10-01T04:05:54.898Z,1014.92
2017-10-01T04:06:35.408Z,1014.93
2017-10-01T04:07:15.952Z,1014.96
2017-10-01T04:07:56.473Z,1014.95
2017-10-01T04:08:37.026Z,1014.97
2017-10-01T04:09:17.524Z,1014.98
2017-10-01T04:09:58.051Z,1014.98
2017-10-01T04:10:38.581Z,1014.97
2017-10-01T04:11:19.104Z,1015
2017-10-01T04:11:59.624Z,1015.04
2017-10-01T04:12:40.152Z,1015.02
2017-10-01T04:13:20.678Z,1015.04
2017-10-01T04:14:01.211Z,1015.06
2017-10-01T04:14:41.750Z,1015.09
2017-10-01T04:15:22.282Z,1015.1
2017-10-01T04:16:02.828Z,1015.12
2017-10-01T04:16:43.374Z,1015.16
2017-10-01T04:17:23.885Z,1015.13
2017-10-01T04:18:04.437Z,1015.23
2017-10-01T04:18:44.932Z,1015.2
2017-10-01T04:19:25.515Z,1015.16
2017-10-01T04:20:06.040Z,1015.2
2017-10-01T04:20:46.558Z,1015.16
2017-10-01T04:21:27.118Z,1015.16
2017-10-01T04:22:07.639Z,1015.19
2017-10-01T04:22:48.184Z,1015.21
2017-10-01T04:23:28.677Z,1015.18
2017-10-01T04:24:09.182Z,1015.19
2017-10-01T04:24:49.725Z,1015.23
2017-10-01T04:25:30.250Z,1015.21
2017-10-01T04:26:10.768Z,1015.2
2017-10-01T04:26:51.300Z,1015.22
2017-10-01T04:27:31.830Z,1015.28
2017-10-01T04:28:12.355Z,1015.24
2017-10-01T04:28:52.897Z,1015.29
2017-10-01T04:29:33.420Z,1015.32
2017-10-01T04:30:13.982Z,1015.35
2017-10-01T04:30:54.523Z,1015.37
2017-10-01T04:31:35.021Z,1015.38
2017-10-01T04:32:15.550Z,1015.39
2017-10-01T04:32:56.069Z,1015.39
2017-10-01T04:33:36.599Z,1015.37
2017-10-01T04:34:17.108Z,1015.36
2017-10-01T04:34:57.649Z,1015.39
2017-10-01T04:35:38.172Z,1015.42
2017-10-01T04:36:18.693Z,1015.43
2017-10-01T04:36:59.221Z,1015.42
2017-10-01T04:37:39.762Z,1015.42
2017-10-01T04:38:20.272Z,1015.46
2017-10-01T04:39:00.801Z,1015.47
2017-10-01T04:39:41.344Z,1015.46
2017-10-01T04:40:21.866Z,1015.47
2017-10-01T04:41:02.391Z,1015.48
2017-10-01T04:41:42.918Z,1015.46
2017-10-01T04:42:23.456Z,1015.48
2017-10-01T04:43:03.989Z,1015.49
2017-10-01T04:43:44.530Z,1015.47
2017-10-01T04:44:25.057Z,1015.49
2017-10-01T04:45:05.550Z,1015.47
2017-10-01T04:45:46.082Z,1015.48
2017-10-01T04:46:26.618Z,1015.48
2017-10-01T04:47:07.152Z,1015.5
2017-10-01T04:47:47.796Z,1015.51
2017-10-01T04:48:28.333Z,1015.48
2017-10-01T04:49:08.855Z,1015.47
2017-10-01T04:49:49.405Z,1015.47
2017-10-01T04:50:29.938Z,1015.53
2017-10-01T04:51:10.432Z,1015.49
2017-10-01T04:51:50.965Z,1015.52
2017-10-01T04:52:31.501Z,1015.48
2017-10-01T04:53:12.010Z,1015.51
2017-10-01T04:53:52.543Z,1015.5
2017-10-01T04:54:33.070Z,1015.51
2017-10-01T04:55:13.590Z,1015.48
2017-10-01T04:55:54.136Z,1015.51
2017-10-01T04:56:34.659Z,1015.45
2017-10-01T04:57:15.184Z,1015.46
2017-10-01T04:57:55.720Z,1015.45
2017-10-01T04:58:36.244Z,1015.44
2017-10-01T04:59:16.755Z,1015.45
2017-10-01T04:59:57.289Z,1015.45
2017-10-01T05:00:37.844Z,1015.42
2017-10-01T05:01:18.432Z,1015.45
2017-10-01T05:01:58.914Z,1015.45
2017-10-01T05:02:39.442Z,1015.45
2017-10-01T05:03:19.943Z,1015.41
2017-10-01T05:04:00.460Z,1015.46
2017-10-01T05:04:40.994Z,1015.42
2017-10-01T05:05:21.526Z,1015.4
2017-10-01T05:06:02.056Z,1015.45
2017-10-01T05:06:42.585Z,1015.43
2017-10-01T05:07:23.106Z,1015.45
2017-10-01T05:08:03.642Z,1015.47
2017-10-01T05:08:44.161Z,1015.43
2017-10-01T05:09:24.682Z,1015.48
2017-10-01T05:10:05.206Z,1015.43
2017-10-01T05:10:45.747Z,1015.43
2017-10-01T05:11:26.268Z,1015.47
2017-10-01T05:12:06.886Z,1015.48
2017-10-01T05:12:47.407Z,1015.5
2017-10-01T05:13:27.948Z,1015.49
2017-10-01T05:14:08.451Z,1015.53
2017-10-01T05:14:48.994Z,1015.5
2017-10-01T05:15:29.527Z,1015.45
2017-10-01T05:16:10.070Z,1015.47
2017-10-01T05:16:50.611Z,1015.46
2017-10-01T05:17:31.143Z,1015.45
2017-10-01T05:18:11.691Z,1015.46
2017-10-01T05:18:52.215Z,1015.4
2017-10-01T05:19:32.755Z,1015.42
2017-10-01T05:20:13.276Z,1015.43
2017-10-01T05:20:53.815Z,1015.39
2017-10-01T05:21:34.417Z,1015.41
2017-10-01T05:22:14.937Z,1015.36
2017-10-01T05:22:55.479Z,1015.35
2017-10-01T05:23:35.993Z,1015.33
2017-10-01T05:24:16.517Z,1015.35
2017-10-01T05:24:57.034Z,1015.35
2017-10-01T05:25:37.630Z,1015.32
2017-10-01T05:26:18.151Z,1015.33
2017-10-01T05:26:58.686Z,1015.31
2017-10-01T05:27:39.216Z,1015.33
2017-10-01T05:28:19.761Z,1015.35
2017-10-01T05:29:00.409Z,1015.33
2017-10-01T05:29:40.930Z,1015.3
2017-10-01T05:30:21.458Z,1015.28
2017-10-01T05:31:01.986Z,1015.31
2017-10-01T05:31:42.482Z,1015.32
2017-10-01T05:32:23.013Z,1015.25
2017-10-01T05:33:03.585Z,1015.25
2017-10-01T05:33:44.120Z,1015.24
2017-10-01T05:34:24.647Z,1015.23
2017-10-01T05:35:05.184Z,1015.22
2017-10-01T05:35:45.717Z,1015.21
2017-10-01T05:36:26.242Z,1015.24
2017-10-01T05:37:06.779Z,1015.22
2017-10-01T05:37:47.369Z,1015.24
2017-10-01T05:38:27.918Z,1015.21
2017-10-01T05:39:08.453Z,1015.22
2017-10-01T05:39:48.990Z,1015.22
2017-10-01T05:40:29.520Z,1015.25
2017-10-01T05:41:10.049Z,1015.24
2017-10-01T05:41:50.570Z,1015.28
2017-10-01T05:42:31.103Z,1015.28
2017-10-01T05:43:11.634Z,1015.28
2017-10-01T05:43:52.149Z,1015.29
2017-10-01T05:44:32.687Z,1015.26
2017-10-01T05:45:13.193Z,1015.29
2017-10-01T05:45:53.851Z,1015.25
2017-10-01T05:46:34.388Z,1015.3
2017-10-01T05:47:14.898Z,1015.3
2017-10-01T05:47:55.428Z,1015.29
2017-10-01T05:48:36.137Z,1015.26
2017-10-01T05:49:16.714Z,1015.33
2017-10-01T05:49:57.446Z,1015.29
2017-10-01T05:50:37.999Z,1015.26
2017-10-01T05:51:18.511Z,1015.27
2017-10-01T05:51:59.039Z,1015.26
2017-10-01T05:52:39.566Z,1015.31
2017-10-01T05:53:20.108Z,1015.25
2017-10-01T05:54:00.640Z,1015.27
2017-10-01T05:54:41.150Z,1015.24
2017-10-01T05:55:21.673Z,1015.25
2017-10-01T05:56:02.186Z,1015.25
2017-10-01T05:56:42.739Z,1015.24
2017-10-01T05:57:23.273Z,1015.24
2017-10-01T05:58:03.793Z,1015.22
2017-10-01T05:58:44.321Z,1015.24
2017-10-01T05:59:24.851Z,1015.17
2017-10-01T06:00:05.407Z,1015.19
2017-10-01T06:00:45.963Z,1015.21
2017-10-01T06:01:26.497Z,1015.19
2017-10-01T06:02:07.024Z,1015.2
2017-10-01T06:02:47.567Z,1015.21
2017-10-01T06:03:28.106Z,1015.21
2017-10-01T06:05:42.474Z,1015.22
2017-10-01T06:06:22.984Z,1015.25
2017-10-01T06:07:03.650Z,1015.22
2017-10-01T06:07:44.196Z,1015.27
2017-10-01T06:08:24.793Z,1015.22
2017-10-01T06:09:05.445Z,1015.23
2017-10-01T06:09:45.951Z,1015.22
2017-10-01T06:10:26.547Z,1015.22
2017-10-01T06:11:07.082Z,1015.21
2017-10-01T06:11:47.616Z,1015.23
2017-10-01T06:12:28.189Z,1015.2
2017-10-01T06:13:08.712Z,1015.22
2017-10-01T06:13:49.311Z,1015.27
2017-10-01T06:14:29.847Z,1015.29
2017-10-01T06:15:10.375Z,1015.29
2017-10-01T06:15:50.954Z,1015.29
2017-10-01T06:16:31.503Z,1015.3
2017-10-01T06:17:12.133Z,1015.3
2017-10-01T06:17:52.672Z,1015.35
2017-10-01T06:18:33.222Z,1015.33
2017-10-01T06:19:13.740Z,1015.34
2017-10-01T06:19:54.258Z,1015.35
2017-10-01T06:20:34.779Z,1015.39
2017-10-01T06:21:15.288Z,1015.39
2017-10-01T06:21:55.785Z,1015.4
2017-10-01T06:22:36.279Z,1015.34
2017-10-01T06:23:16.787Z,1015.35
2017-10-01T06:23:57.591Z,1015.38
2017-10-01T06:24:38.353Z,1015.38
2017-10-01T06:25:18.848Z,1015.4
2017-10-01T06:25:59.452Z,1015.38
2017-10-01T06:26:39.956Z,1015.45
2017-10-01T06:27:20.605Z,1015.45
2017-10-01T06:28:01.111Z,1015.45
2017-10-01T06:28:41.635Z,1015.42
2017-10-01T06:29:22.139Z,1015.44
2017-10-01T06:30:02.639Z,1015.44
2017-10-01T06:30:43.150Z,1015.47
2017-10-01T06:31:23.680Z,1015.46
2017-10-01T06:32:04.209Z,1015.5
2017-10-01T06:32:44.714Z,1015.5
2017-10-01T06:33:25.245Z,1015.54
2017-10-01T06:34:05.760Z,1015.5
2017-10-01T06:34:46.287Z,1015.53
2017-10-01T06:35:26.792Z,1015.52
2017-10-01T06:36:07.304Z,1015.57
2017-10-01T06:36:47.795Z,1015.58
2017-10-01T06:37:28.294Z,1015.56
2017-10-01T06:38:08.813Z,1015.58
2017-10-01T06:38:49.344Z,1015.58
2017-10-01T06:39:29.841Z,1015.56
2017-10-01T06:40:10.351Z,1015.58
2017-10-01T06:40:50.909Z,1015.59
2017-10-01T06:41:32.193Z,1015.56
2017-10-01T06:42:12.710Z,1015.55
2017-10-01T06:42:53.450Z,1015.54
2017-10-01T06:43:34.191Z,1015.55
2017-10-01T06:44:15.082Z,1015.52
2017-10-01T06:44:55.726Z,1015.52
2017-10-01T06:45:36.458Z,1015.52
2017-10-01T06:46:17.063Z,1015.5
2017-10-01T06:46:57.772Z,1015.47
2017-10-01T06:47:38.572Z,1015.48
2017-10-01T06:48:19.421Z,1015.48
2017-10-01T06:49:00.284Z,1015.49
2017-10-01T06:49:40.838Z,1015.47
2017-10-01T06:50:21.555Z,1015.48
2017-10-01T06:51:02.309Z,1015.53
2017-10-01T06:51:43.459Z,1015.41
2017-10-01T06:52:24.201Z,1015.47
2017-10-01T06:53:05.021Z,1015.44
2017-10-01T06:53:45.764Z,1015.43
2017-10-01T06:54:26.239Z,1015.43
2017-10-01T06:55:06.776Z,1015.43
2017-10-01T06:55:47.322Z,1015.48
2017-10-01T06:56:27.832Z,1015.46
2017-10-01T06:57:08.325Z,1015.44
2017-10-01T06:57:48.843Z,1015.46
2017-10-01T06:58:29.392Z,1015.47
2017-10-01T06:59:09.858Z,1015.43
2017-10-01T06:59:50.356Z,1015.42
2017-10-01T07:00:30.879Z,1015.46
2017-10-01T07:01:11.424Z,1015.46
2017-10-01T07:01:51.970Z,1015.46
2017-10-01T07:02:32.471Z,1015.49
2017-10-01T07:03:12.997Z,1015.44
2017-10-01T07:03:53.510Z,1015.49
2017-10-01T07:04:34.006Z,1015.45
2017-10-01T07:05:14.526Z,1015.47
2017-10-01T07:05:55.047Z,1015.48
2017-10-01T07:06:35.574Z,1015.45
2017-10-01T07:07:16.084Z,1015.47
2017-10-01T07:07:56.611Z,1015.46
2017-10-01T07:08:37.137Z,1015.47
2017-10-01T07:09:17.630Z,1015.46
2017-10-01T07:09:58.151Z,1015.45
2017-10-01T07:10:38.664Z,1015.47
2017-10-01T07:11:19.229Z,1015.52
2017-10-01T07:11:59.737Z,1015.48
2017-10-01T07:12:40.263Z,1015.5
2017-10-01T07:13:20.762Z,1015.51
2017-10-01T07:14:01.265Z,1015.51
2017-10-01T07:14:41.798Z,1015.51
2017-10-01T07:15:22.320Z,1015.51
2017-10-01T07:16:02.848Z,1015.52
2017-10-01T07:16:43.388Z,1015.55
2017-10-01T07:17:23.905Z,1015.54
2017-10-01T07:18:04.420Z,1015.56
2017-10-01T07:18:44.933Z,1015.51
2017-10-01T07:19:25.458Z,1015.57
2017-10-01T07:20:06.052Z,1015.56
2017-10-01T07:20:46.544Z,1015.54
2017-10-01T07:21:27.033Z,1015.55
2017-10-01T07:22:07.535Z,1015.53
2017-10-01T07:22:48.066Z,1015.5
2017-10-01T07:23:28.542Z,1015.5
2017-10-01T07:24:09.074Z,1015.48
2017-10-01T07:24:49.591Z,1015.5
2017-10-01T07:25:30.117Z,1015.51
2017-10-01T07:26:10.615Z,1015.52
2017-10-01T07:26:51.125Z,1015.53
2017-10-01T07:27:31.650Z,1015.52
2017-10-01T07:28:12.170Z,1015.54
2017-10-01T07:28:52.706Z,1015.53
2017-10-01T07:29:33.243Z,1015.5
2017-10-01T07:30:13.759Z,1015.55
2017-10-01T07:30:54.327Z,1015.53
2017-10-01T07:31:34.828Z,1015.57
2017-10-01T07:32:15.355Z,1015.54
2017-10-01T07:32:55.935Z,1015.54
2017-10-01T07:33:36.423Z,1015.53
2017-10-01T07:34:17.012Z,1015.53
2017-10-01T07:34:57.513Z,1015.56
2017-10-01T07:35:38.046Z,1015.47
2017-10-01T07:36:18.549Z,1015.53
2017-10-01T07:38:32.774Z,1015.56
2017-10-01T07:39:13.293Z,1015.53
2017-10-01T07:39:53.804Z,1015.51
2017-10-01T07:40:34.353Z,1015.56
2017-10-01T07:41:14.871Z,1015.54
2017-10-01T07:41:55.516Z,1015.57
2017-10-01T07:42:35.922Z,1015.55
2017-10-01T07:43:16.458Z,1015.55
2017-10-01T07:43:57.006Z,1015.55
2017-10-01T07:44:37.504Z,1015.55
2017-10-01T07:45:18.024Z,1015.55
2017-10-01T07:45:58.548Z,1015.56
2017-10-01T07:46:39.081Z,1015.62
2017-10-01T07:47:19.599Z,1015.59
2017-10-01T07:48:00.109Z,1015.6
2017-10-01T07:48:40.637Z,1015.57
2017-10-01T07:49:21.210Z,1015.6
2017-10-01T07:50:01.726Z,1015.59
2017-10-01T07:50:42.246Z,1015.55
2017-10-01T07:51:22.792Z,1015.56
2017-10-01T07:52:03.302Z,1015.59
2017-10-01T07:52:43.831Z,1015.6
2017-10-01T07:53:24.368Z,1015.59
2017-10-01T07:54:04.894Z,1015.62
2017-10-01T07:54:45.427Z,1015.6
2017-10-01T07:55:25.972Z,1015.62
2017-10-01T07:56:06.460Z,1015.62
2017-10-01T07:56:47.094Z,1015.62
2017-10-01T07:57:27.618Z,1015.59
2017-10-01T07:58:08.141Z,1015.59
2017-10-01T07:58:48.650Z,1015.6
2017-10-01T07:59:29.165Z,1015.58
2017-10-01T08:00:09.760Z,1015.56
2017-10-01T08:00:50.296Z,1015.6
2017-10-01T08:01:31.125Z,1015.56
2017-10-01T08:02:12.239Z,1015.56
2017-10-01T08:02:52.945Z,1015.53
2017-10-01T08:03:33.461Z,1015.55
2017-10-01T08:04:13.985Z,1015.58
2017-10-01T08:04:54.516Z,1015.56
2017-10-01T08:05:35.039Z,1015.59
2017-10-01T08:06:15.587Z,1015.59
2017-10-01T08:06:56.125Z,1015.62
2017-10-01T08:07:38.215Z,1015.62
2017-10-01T08:08:18.744Z,1015.61
2017-10-01T08:08:59.277Z,1015.6
2017-10-01T08:09:39.809Z,1015.63
2017-10-01T08:10:20.732Z,1015.62
2017-10-01T08:11:01.258Z,1015.58
2017-10-01T08:11:41.781Z,1015.59
2017-10-01T08:12:22.412Z,1015.58
2017-10-01T08:13:02.923Z,1015.61
2017-10-01T08:13:43.443Z,1015.59
2017-10-01T08:14:23.934Z,1015.6
2017-10-01T08:15:04.449Z,1015.57